Otranto, Iowa
Current Conditions -  °F | °C
As of 6:56 PM on Monday 22 Dec 2014 (Local Time) from KAUM Reporting Station
Drizzle Drizzle  
Wind Chill: 25°   Ceiling: 900
Heat Index: 34°   Visibility: 7mi
Dew Point: 34°   Wind: 13mph
Humidity: 100%   Direction: 100°E
Pressure: 29.54"   Gusts: NA
Location:  43.4276°N, 92.9158°W
Report Text: KAUM 230056Z AUTO 10011KT 7SM -DZ OVC009 01/01 A2954 RMK AO2
Loading
Personal Weather Stations






























Interactive Weather Map New forecast layout! Learn more

10-Day Weather Forecast

Advertisements
Track Severe Weather on mobile